createdAt,value
2023-05-22T00:00:28.543Z,18.02
2023-05-22T00:05:34.836Z,19.17
2023-05-22T00:10:38.292Z,21.83
2023-05-22T00:15:41.538Z,18.88
2023-05-22T00:20:46.581Z,19.50
2023-05-22T00:25:52.099Z,19.60
2023-05-22T00:30:55.150Z,19.83
2023-05-22T00:35:59.509Z,18.17
2023-05-22T00:41:04.095Z,16.53
2023-05-22T00:46:07.716Z,21.03
2023-05-22T00:51:12.248Z,25.03
2023-05-22T00:56:16.276Z,23.70
2023-05-22T01:01:19.849Z,20.90
2023-05-22T01:06:24.409Z,22.47
2023-05-22T01:11:33.212Z,18.03
2023-05-22T01:16:41.881Z,19.37
2023-05-22T01:21:57.634Z,18.83
2023-05-22T01:27:29.283Z,19.60
2023-05-22T01:32:38.675Z,19.30
2023-05-22T01:37:44.036Z,17.70
2023-05-22T01:42:47.185Z,20.40
2023-05-22T01:47:52.181Z,16.33
2023-05-22T01:53:00.116Z,22.03
2023-05-22T01:58:11.527Z,19.47
2023-05-22T02:03:21.019Z,20.27
2023-05-22T02:08:27.816Z,18.77
2023-05-22T02:13:31.508Z,21.87
2023-05-22T02:18:36.032Z,21.27
2023-05-22T02:23:39.110Z,23.50
2023-05-22T02:28:43.642Z,19.47
2023-05-22T02:33:50.419Z,18.53
2023-05-22T02:38:55.517Z,18.30
2023-05-22T02:43:59.414Z,22.43
2023-05-22T02:49:04.373Z,25.07
2023-05-22T02:54:07.376Z,22.30
2023-05-22T02:59:10.438Z,22.63
2023-05-22T03:04:15.891Z,23.80
2023-05-22T03:09:20.299Z,25.10
2023-05-22T03:14:23.353Z,27.00
2023-05-22T03:19:28.096Z,19.30
2023-05-22T03:24:31.571Z,22.70
2023-05-22T03:29:36.441Z,23.43
2023-05-22T03:34:41.503Z,18.67
2023-05-22T03:39:46.602Z,19.50
2023-05-22T03:44:58.393Z,23.60
2023-05-22T03:50:03.783Z,23.17
2023-05-22T03:55:08.142Z,18.33
2023-05-22T04:00:12.675Z,19.13
2023-05-22T04:05:19.767Z,26.10
2023-05-22T04:10:23.713Z,20.67
2023-05-22T04:15:27.076Z,24.53
2023-05-22T04:20:32.296Z,20.93
2023-05-22T04:25:36.519Z,26.20
2023-05-22T04:30:40.514Z,24.40
2023-05-22T04:35:45.515Z,20.47
2023-05-22T04:40:48.764Z,26.70
2023-05-22T04:45:52.056Z,23.97
2023-05-22T04:50:57.602Z,23.80
2023-05-22T04:56:00.917Z,27.93
2023-05-22T05:01:05.054Z,24.10
2023-05-22T05:06:09.657Z,27.70
2023-05-22T05:11:12.837Z,27.33
2023-05-22T05:16:16.148Z,26.47
2023-05-22T05:21:21.440Z,25.63
2023-05-22T05:26:25.041Z,26.27
2023-05-22T05:31:28.998Z,25.10
2023-05-22T05:36:57.376Z,25.13
2023-05-22T05:42:01.925Z,30.73
2023-05-22T05:47:06.425Z,27.88
2023-05-22T05:52:11.066Z,30.37
2023-05-22T05:57:15.290Z,39.17
2023-05-22T06:02:19.282Z,32.33
2023-05-22T06:07:24.961Z,41.05
2023-05-22T06:12:30.352Z,38.58
2023-05-22T06:17:33.488Z,39.17
2023-05-22T06:22:38.922Z,41.60
2023-05-22T06:27:42.623Z,37.33
2023-05-22T06:32:45.897Z,51.67
2023-05-22T06:37:50.601Z,40.53
2023-05-22T06:42:53.842Z,40.42
2023-05-22T06:48:23.430Z,39.45
2023-05-22T06:53:54.838Z,38.80
2023-05-22T06:59:01.218Z,34.92
2023-05-22T07:04:22.805Z,34.70
2023-05-22T07:09:35.746Z,33.33
2023-05-22T07:14:40.166Z,29.25
2023-05-22T07:19:43.513Z,29.45
2023-05-22T07:24:48.268Z,30.33
2023-05-22T07:29:53.533Z,31.55
2023-05-22T07:34:57.540Z,27.52
2023-05-22T07:40:02.930Z,25.10
2023-05-22T07:45:08.132Z,27.25
2023-05-22T07:50:11.541Z,29.25
2023-05-22T07:55:19.530Z,25.00
2023-05-22T08:00:25.396Z,26.65
2023-05-22T08:05:28.643Z,20.10
2023-05-22T08:10:46.436Z,21.42
2023-05-22T08:15:50.601Z,24.30
2023-05-22T08:21:03.822Z,24.08
2023-05-22T08:26:09.910Z,23.60
2023-05-22T08:31:13.142Z,25.65
2023-05-22T08:36:16.412Z,18.35
2023-05-22T08:41:21.822Z,18.98
2023-05-22T08:46:29.411Z,23.77
2023-05-22T08:51:35.783Z,20.23
2023-05-22T08:56:52.911Z,20.83
2023-05-22T09:01:59.741Z,18.52
2023-05-22T09:07:05.808Z,22.35
2023-05-22T09:12:11.743Z,19.67
2023-05-22T09:17:17.186Z,24.83
2023-05-22T09:22:21.816Z,22.52
2023-05-22T09:27:28.768Z,19.60
2023-05-22T09:32:32.183Z,19.17
2023-05-22T09:37:38.382Z,16.75
2023-05-22T09:42:45.795Z,21.90
2023-05-22T09:47:50.629Z,16.90
2023-05-22T09:52:55.383Z,19.23
2023-05-22T09:58:04.219Z,19.52
2023-05-22T10:03:12.193Z,18.63
2023-05-22T10:08:16.310Z,19.60
2023-05-22T10:13:21.606Z,22.83
2023-05-22T10:18:26.005Z,17.85
2023-05-22T10:23:29.695Z,19.17
2023-05-22T10:28:41.850Z,17.13
2023-05-22T10:33:49.853Z,18.23
2023-05-22T10:39:08.111Z,18.33
2023-05-22T10:44:12.696Z,16.17
2023-05-22T10:49:22.509Z,18.88
2023-05-22T10:54:42.192Z,15.60
2023-05-22T10:59:48.741Z,17.13
2023-05-22T11:04:51.854Z,17.02
2023-05-22T11:10:01.579Z,18.90
2023-05-22T11:15:07.936Z,20.15
2023-05-22T11:20:16.122Z,20.48
2023-05-22T11:25:21.466Z,18.30
2023-05-22T11:30:28.506Z,15.48
2023-05-22T11:35:32.233Z,16.42
2023-05-22T11:40:35.353Z,19.10
2023-05-22T11:45:40.943Z,18.02
2023-05-22T11:50:45.040Z,18.83
2023-05-22T11:55:49.766Z,17.00
2023-05-22T12:00:58.341Z,14.18
2023-05-22T12:06:03.860Z,15.00
2023-05-22T12:11:07.664Z,16.92
2023-05-22T12:16:22.892Z,20.02
2023-05-22T12:21:28.171Z,21.42
2023-05-22T12:26:31.682Z,25.15
2023-05-22T12:31:39.236Z,26.98
2023-05-22T12:36:44.155Z,31.33
2023-05-22T12:41:47.380Z,26.67
2023-05-22T12:46:53.510Z,26.75
2023-05-22T12:51:56.661Z,33.22
2023-05-22T12:56:59.714Z,28.17
2023-05-22T13:02:05.535Z,26.08
2023-05-22T13:07:08.813Z,19.75
2023-05-22T13:12:12.106Z,26.95
2023-05-22T13:17:16.473Z,27.10
2023-05-22T13:22:19.690Z,26.95
2023-05-22T13:27:22.942Z,21.67
2023-05-22T13:32:27.333Z,19.75
2023-05-22T13:37:30.724Z,19.30
2023-05-22T13:42:34.070Z,17.50
2023-05-22T13:47:38.615Z,19.52
2023-05-22T13:52:41.733Z,19.40
2023-05-22T13:57:44.682Z,20.13
2023-05-22T14:02:50.166Z,23.88
2023-05-22T14:07:54.196Z,21.00
2023-05-22T14:12:57.404Z,28.50
2023-05-22T14:18:02.064Z,26.77
2023-05-22T14:23:05.446Z,21.80
2023-05-22T14:28:08.521Z,14.48
2023-05-22T14:33:13.007Z,18.05
2023-05-22T14:38:16.148Z,15.60
2023-05-22T14:43:19.130Z,13.85
2023-05-22T14:48:26.380Z,18.58
2023-05-22T14:53:29.853Z,15.48
2023-05-22T14:58:33.175Z,22.13
2023-05-22T15:03:37.592Z,11.18
2023-05-22T15:08:40.624Z,16.48
2023-05-22T15:13:43.690Z,12.13
2023-05-22T15:18:48.074Z,21.92
2023-05-22T15:23:51.339Z,20.38
2023-05-22T15:28:54.373Z,8.43
2023-05-22T15:33:58.957Z,10.20
2023-05-22T15:39:02.890Z,10.13
2023-05-22T15:44:06.005Z,8.80
2023-05-22T15:49:10.542Z,10.77
2023-05-22T15:54:13.647Z,11.13
2023-05-22T15:59:16.705Z,6.72
2023-05-22T16:04:21.200Z,8.85
2023-05-22T16:09:24.348Z,5.32
2023-05-22T16:14:27.407Z,5.85
2023-05-22T16:19:33.560Z,7.35
2023-05-22T16:24:36.926Z,5.95
2023-05-22T16:29:40.010Z,6.47
2023-05-22T16:34:44.515Z,4.78
2023-05-22T16:39:48.004Z,7.95
2023-05-22T16:44:51.524Z,7.05
2023-05-22T16:49:56.389Z,4.95
2023-05-22T16:54:59.461Z,6.22
2023-05-22T17:00:03.715Z,3.30
2023-05-22T17:05:09.191Z,6.85
2023-05-22T17:10:12.956Z,3.30
2023-05-22T17:15:16.380Z,3.40
2023-05-22T17:20:23.265Z,3.67
2023-05-22T17:25:26.652Z,5.88
2023-05-22T17:30:29.744Z,4.20
2023-05-22T17:35:34.378Z,3.75
2023-05-22T17:40:45.990Z,5.63
2023-05-22T17:45:53.852Z,4.85
2023-05-22T17:50:59.503Z,6.63
2023-05-22T17:56:02.625Z,3.92
2023-05-22T18:01:05.871Z,4.60
2023-05-22T18:06:10.531Z,5.78
2023-05-22T18:11:13.694Z,5.13
2023-05-22T18:16:19.706Z,7.40
2023-05-22T18:21:25.810Z,6.82
2023-05-22T18:26:28.935Z,5.38
2023-05-22T18:31:31.998Z,5.75
2023-05-22T18:36:41.696Z,6.57
2023-05-22T18:41:45.151Z,6.70
2023-05-22T18:46:48.362Z,6.53
2023-05-22T18:51:52.827Z,7.95
2023-05-22T18:56:56.481Z,8.43
2023-05-22T19:01:59.600Z,6.68
2023-05-22T19:07:04.512Z,9.23
2023-05-22T19:12:07.985Z,10.07
2023-05-22T19:17:11.228Z,12.05
2023-05-22T19:22:18.590Z,15.82
2023-05-22T19:27:21.742Z,9.18
2023-05-22T19:32:24.764Z,13.00
2023-05-22T19:37:29.180Z,14.52
2023-05-22T19:42:32.319Z,13.77
2023-05-22T19:47:35.433Z,13.15
2023-05-22T19:52:43.027Z,16.05
2023-05-22T19:57:46.549Z,16.60
2023-05-22T20:02:50.076Z,15.50
2023-05-22T20:07:54.561Z,19.48
2023-05-22T20:12:58.139Z,12.18
2023-05-22T20:18:02.708Z,16.13
2023-05-22T20:23:07.369Z,15.57
2023-05-22T20:28:10.605Z,18.00
2023-05-22T20:33:14.421Z,13.52
2023-05-22T20:38:19.111Z,14.70
2023-05-22T20:43:22.161Z,19.45
2023-05-22T20:48:25.619Z,34.03
2023-05-22T20:53:32.790Z,27.95
2023-05-22T20:58:38.576Z,33.05
2023-05-22T21:03:42.355Z,34.78
2023-05-22T21:08:46.748Z,34.38
2023-05-22T21:13:50.203Z,39.75
2023-05-22T21:18:53.258Z,33.30
2023-05-22T21:23:57.835Z,33.95
2023-05-22T21:29:01.118Z,30.55
2023-05-22T21:34:04.194Z,30.40
2023-05-22T21:39:08.909Z,24.97
2023-05-22T21:44:12.014Z,22.65
2023-05-22T21:49:15.239Z,23.83
2023-05-22T21:54:19.806Z,20.58
2023-05-22T21:59:22.914Z,22.35
2023-05-22T22:04:26.120Z,22.80
2023-05-22T22:09:30.491Z,20.53
2023-05-22T22:14:33.490Z,20.93
2023-05-22T22:19:47.200Z,23.17
2023-05-22T22:24:51.725Z,25.00
2023-05-22T22:29:54.922Z,22.73
2023-05-22T22:34:58.253Z,19.03
2023-05-22T22:40:02.812Z,16.20
2023-05-22T22:45:07.183Z,14.88
2023-05-22T22:50:11.002Z,12.80
2023-05-22T22:55:15.670Z,13.00
2023-05-22T23:00:20.283Z,10.30
2023-05-22T23:05:23.548Z,9.73
2023-05-22T23:10:28.010Z,10.97
2023-05-22T23:15:31.126Z,13.00
2023-05-22T23:20:34.281Z,14.27
2023-05-22T23:25:38.882Z,13.43
2023-05-22T23:30:42.215Z,15.67
2023-05-22T23:35:45.192Z,15.97
2023-05-22T23:40:49.701Z,16.20
2023-05-22T23:45:52.769Z,18.48
2023-05-22T23:50:55.836Z,17.83
2023-05-22T23:56:00.329Z,21.13
